Abbotsford, WI (54405)

8:40 AM CDT on May 23, 2018 (GMT -0500)
Holton Township | | Change Station
Active Advisory: Dense Fog Advisory

Elev 1435 ft 45.01 °N, 90.29 °W | Updated 28 seconds ago

Clear
Clear
61.5 °F
Feels Like 61.5 °F
N
0.0
Wind Variable Wind from South
Gusts 1.3 mph

Today
High -- | Low -- °F
--% Chance of Precip.
Yesterday
High -- | Low -- °F
Precip. -- in
Pressure 30.19 in
Visibility 10.0 miles
Clouds Clear
Dew Point 47 °F
Humidity 58%
Rainfall 0.00 in
Snow Depth Not available.
5:24 AM 8:32 PM
Waxing Gibbous, 66% visible
METAR KMDZ 231315Z AUTO 22003KT 10SM CLR 15/14 A3019 RMK AO2 T01540140
Pressure 30.19 in
Visibility 10.0 miles
Clouds Clear
Dew Point 47 °F
Humidity 58%
Rainfall 0.00 in
Snow Depth Not available.
5:24 AM 8:32 PM
Waxing Gibbous, 66% visible
METAR KMDZ 231315Z AUTO 22003KT 10SM CLR 15/14 A3019 RMK AO2 T01540140

Get Your Daily Forecast Email!

Thanks for signing up!

Be on the lookout for a verification email in your inbox.

You'll start receiving severe weather alerts in your inbox..

×

10-Day Weather Forecast

Almanac

Astronomy

May. 23, 2018 Rise Set
Actual Time
Civil Twilight
Nautical Twilight
Astronomical Twilight
Moon
Length of Visible Light
Length of Day
Tomorrow will be .
, % of the Moon is Illuminated

Today's Extremes

State Highs State Lows

Community

WunderPhotos

Category 6

Welcome to Category 6. This is the collective home for Weather Underground's featured writeups by Dr. Jeff Masters (right), Bob Henson (left), Chris Burt, and other regular contributors.

Nearby

Air Quality

  Air Quality AQ Index Pollutant
Not available.

Snow Depth

Station Depth Elevation

Earthquake Activity

City Distance Mag. Time & Date
Minimum magnitude displayed is 2.5.

Coastal Water Temperatures

Place Temperature

Stations

Nearby Weather Stations

Station Location Temp. Windchill Dew Point Humidity Wind Precip. Elev Updated Type
                   

Watches & Warnings

Dense Fog Advisory
Issued: 6:40 AM CDT May. 23, 2018 – National Weather Service

... Dense fog advisory remains in effect until 9 am CDT this
morning...

* visibility... 1/4 mile or less.

* Impacts... reduced visibilities for morning commuters. Slow
down, use extra caution while traveling.

Precautionary/preparedness actions...

A dense fog advisory means visibilities will frequently be
reduced to less than 1/4 mile. If driving... slow down... use your
headlights... and leave plenty of distance ahead of you.